Terminal Aerodrome Forecast
Issued by NWS

Home | Current Version | Previous Version | Text Only | Print | Product List | Glossary On
Versions: 1 2 3 4 5 6 7 8 9 10 11 12 13 14 15 16 17 18
000
FTUS45 KSLC 011850 AAA
TAFBCE
TAF AMD
KBCE 011850Z 0119/0218 15010KT P6SM VCSH SCT035 BKN050
      TEMPO 0119/0121 VRB10G18KT -TSRA BKN030CB
     FM012200 22013G18KT P6SM SCT060 BKN100
     FM020200 25005KT P6SM FEW060 SCT100=

USA.gov is the U.S. government's official web portal to all federal, state and local government web resources and services.